createdAt,value
2018-12-04T00:03:31.051Z,99694.55
2018-12-04T00:08:34.179Z,99694.92
2018-12-04T00:13:37.383Z,99691.26
2018-12-04T00:18:40.583Z,99697.75
2018-12-04T00:23:44.059Z,99704.08
2018-12-04T00:28:47.268Z,99718.25
2018-12-04T00:33:50.450Z,99714.62
2018-12-04T00:38:53.634Z,99722.14
2018-12-04T00:43:56.825Z,99721.72
2018-12-04T00:49:00.003Z,99728.06
2018-12-04T00:54:03.240Z,99727.56
2018-12-04T00:59:06.454Z,99741.34
2018-12-04T01:04:09.645Z,99741.37
2018-12-04T01:09:12.884Z,99748.77
2018-12-04T01:14:16.096Z,99751.38
2018-12-04T01:19:19.313Z,99758.35
2018-12-04T01:24:22.559Z,99760.11
2018-12-04T01:29:25.735Z,99769.69
2018-12-04T01:34:28.886Z,99772.69
2018-12-04T01:39:34.951Z,99770.80
2018-12-04T01:44:38.126Z,99766.34
2018-12-04T01:49:41.250Z,99764.62
2018-12-04T01:54:44.555Z,99771.80
2018-12-04T01:59:47.779Z,99776.80
2018-12-04T02:04:50.952Z,99780.48
2018-12-04T02:09:54.077Z,99785.27
2018-12-04T02:14:57.255Z,99786.70
2018-12-04T02:20:00.567Z,99780.47
2018-12-04T02:25:04.023Z,99794.53
2018-12-04T02:30:07.406Z,99801.66
2018-12-04T02:35:10.592Z,99809.50
2018-12-04T02:40:13.776Z,99822.92
2018-12-04T02:45:21.246Z,99818.91
2018-12-04T02:50:25.311Z,99844.08
2018-12-04T02:55:28.460Z,99854.20
2018-12-04T03:00:34.951Z,99855.60
2018-12-04T03:05:38.092Z,99879.20
2018-12-04T03:10:41.467Z,99900.78
2018-12-04T03:15:44.639Z,99935.11
2018-12-04T03:20:47.810Z,99963.09
2018-12-04T03:25:51.022Z,99973.69
2018-12-04T03:30:54.250Z,99990.08
2018-12-04T03:35:57.521Z,100009.05
2018-12-04T03:41:01.568Z,100027.63
2018-12-04T03:46:04.701Z,100045.98
2018-12-04T03:51:07.967Z,100044.66
2018-12-04T03:56:11.104Z,100064.85
2018-12-04T04:01:14.264Z,100077.05
2018-12-04T04:06:17.418Z,100088.91
2018-12-04T04:11:20.631Z,100106.21
2018-12-04T04:16:23.912Z,100118.88
2018-12-04T04:21:27.043Z,100142.36
2018-12-04T04:26:30.272Z,100143.85
2018-12-04T04:31:33.398Z,100155.20
2018-12-04T04:36:36.691Z,100169.33
2018-12-04T04:41:39.834Z,100180.13
2018-12-04T04:46:42.993Z,100197.08
2018-12-04T04:51:46.143Z,100205.89
2018-12-04T04:56:49.305Z,100226.01
2018-12-04T05:01:52.558Z,100228.82
2018-12-04T05:06:55.713Z,100248.64
2018-12-04T05:11:59.079Z,100259.45
2018-12-04T05:17:02.379Z,100278.95
2018-12-04T05:22:05.692Z,100293.79
2018-12-04T05:27:08.899Z,100320.90
2018-12-04T05:32:12.072Z,100330.38
2018-12-04T05:37:15.290Z,100355.75
2018-12-04T05:42:18.568Z,100349.23
2018-12-04T05:47:21.726Z,100354.89
2018-12-04T05:52:27.162Z,100375.20
2018-12-04T05:57:30.371Z,100384.35
2018-12-04T06:02:33.603Z,100398.67
2018-12-04T06:07:37.611Z,100418.95
2018-12-04T06:12:41.055Z,100428.15
2018-12-04T06:17:44.284Z,100448.44
2018-12-04T06:22:47.511Z,100463.80
2018-12-04T06:27:50.781Z,100478.94
2018-12-04T06:32:53.921Z,100490.91
2018-12-04T06:37:57.647Z,100503.84
2018-12-04T06:43:00.970Z,100515.86
2018-12-04T06:48:04.284Z,100534.28
2018-12-04T06:53:07.392Z,100558.40
2018-12-04T06:58:10.555Z,100568.48
2018-12-04T07:03:21.508Z,100597.45
2018-12-04T07:08:24.850Z,100614.94
2018-12-04T07:13:27.993Z,100626.89
2018-12-04T07:18:31.527Z,100640.13
2018-12-04T07:23:34.725Z,100649.66
2018-12-04T07:28:38.144Z,100656.39
2018-12-04T07:33:41.373Z,100674.50
2018-12-04T07:38:44.565Z,100691.80
2018-12-04T07:43:48.196Z,100703.48
2018-12-04T07:48:51.359Z,100718.13
2018-12-04T07:53:54.567Z,100733.75
2018-12-04T07:58:57.715Z,100748.39
2018-12-04T08:04:01.013Z,100760.73
2018-12-04T08:09:07.341Z,100780.23
2018-12-04T08:14:10.518Z,100796.36
2018-12-04T08:19:13.714Z,100795.89
2018-12-04T08:24:16.936Z,100803.50
2018-12-04T08:29:20.100Z,100819.33
2018-12-04T08:34:23.316Z,100841.73
2018-12-04T08:39:26.549Z,100843.13
2018-12-04T08:44:29.652Z,100849.59
2018-12-04T08:49:32.803Z,100865.41
2018-12-04T08:54:36.021Z,100884.09
2018-12-04T08:59:39.317Z,100900.02
2018-12-04T09:04:42.629Z,100904.42
2018-12-04T09:09:46.315Z,100906.84
2018-12-04T09:14:49.491Z,100926.24
2018-12-04T09:19:52.727Z,100937.95
2018-12-04T09:24:56.058Z,100940.84
2018-12-04T09:29:59.357Z,100954.47
2018-12-04T09:35:02.862Z,100964.27
2018-12-04T09:40:07.216Z,100974.86
2018-12-04T09:45:10.634Z,100982.78
2018-12-04T09:50:13.872Z,100987.52
2018-12-04T09:55:17.011Z,100989.86
2018-12-04T10:00:20.210Z,100991.95
2018-12-04T10:05:23.349Z,100996.14
2018-12-04T10:10:26.524Z,101009.16
2018-12-04T10:15:29.696Z,101022.39
2018-12-04T10:20:32.844Z,101019.83
2018-12-04T10:25:36.097Z,101029.84
2018-12-04T10:30:39.252Z,101035.22
2018-12-04T10:35:42.470Z,101050.86
2018-12-04T10:40:45.794Z,101046.19
2018-12-04T10:45:49.181Z,101065.47
2018-12-04T10:50:52.451Z,101062.73
2018-12-04T10:55:55.655Z,101068.36
2018-12-04T11:00:58.800Z,101086.17
2018-12-04T11:06:02.041Z,101074.02
2018-12-04T11:11:05.385Z,101083.22
2018-12-04T11:16:08.798Z,101099.73
2018-12-04T11:21:12.124Z,101109.48
2018-12-04T11:26:15.410Z,101122.94
2018-12-04T11:31:18.688Z,101122.45
2018-12-04T11:36:21.955Z,101139.28
2018-12-04T11:41:25.229Z,101137.89
2018-12-04T11:46:28.425Z,101146.36
2018-12-04T11:51:31.728Z,101166.83
2018-12-04T11:56:34.921Z,101165.19
2018-12-04T12:01:38.220Z,101169.37
2018-12-04T12:06:41.413Z,101172.66
2018-12-04T12:11:44.648Z,101174.24
2018-12-04T12:16:47.867Z,101185.11
2018-12-04T12:21:51.060Z,101195.52
2018-12-04T12:26:54.315Z,101211.88
2018-12-04T12:31:57.511Z,101215.98
2018-12-04T12:37:00.706Z,101216.73
2018-12-04T12:42:04.830Z,101232.45
2018-12-04T12:47:08.130Z,101222.54
2018-12-04T12:52:11.631Z,101225.23
2018-12-04T12:57:14.892Z,101232.80
2018-12-04T13:02:18.121Z,101247.41
2018-12-04T13:07:22.395Z,101255.33
2018-12-04T13:12:25.738Z,101255.70
2018-12-04T13:17:29.304Z,101275.62
2018-12-04T13:22:33.122Z,101294.77
2018-12-04T13:27:36.262Z,101318.59
2018-12-04T13:32:39.546Z,101320.05
2018-12-04T13:37:42.803Z,101319.13
2018-12-04T13:42:46.676Z,101336.34
2018-12-04T13:47:49.838Z,101348.34
2018-12-04T13:52:53.084Z,101347.55
2018-12-04T13:57:56.803Z,101360.13
2018-12-04T14:03:00.006Z,101380.14
2018-12-04T14:08:03.345Z,101393.42
2018-12-04T14:13:06.538Z,101391.99
2018-12-04T14:18:11.131Z,101403.88
2018-12-04T14:23:14.422Z,101422.88
2018-12-04T14:28:17.688Z,101427.14
2018-12-04T14:33:20.797Z,101438.56
2018-12-04T14:38:24.691Z,101457.24
2018-12-04T14:43:28.134Z,101467.06
2018-12-04T14:48:31.379Z,101476.48
2018-12-04T14:53:34.534Z,101492.78
2018-12-04T14:58:37.784Z,101502.80
2018-12-04T15:03:41.252Z,101513.42
2018-12-04T15:08:44.587Z,101517.64
2018-12-04T15:13:47.834Z,101533.84
2018-12-04T15:18:51.121Z,101536.73
2018-12-04T15:23:54.282Z,101552.63
2018-12-04T15:28:57.542Z,101560.48
2018-12-04T15:34:01.149Z,101571.70
2018-12-04T15:39:07.440Z,101583.22
2018-12-04T15:44:10.684Z,101593.70
2018-12-04T15:49:14.017Z,101601.60
2018-12-04T15:54:17.355Z,101598.36
2018-12-04T15:59:20.658Z,101613.05
2018-12-04T16:04:23.835Z,101614.34
2018-12-04T16:09:27.210Z,101621.49
2018-12-04T16:14:30.521Z,101633.80
2018-12-04T16:19:33.673Z,101637.04
2018-12-04T16:24:37.026Z,101655.65
2018-12-04T16:29:41.648Z,101672.31
2018-12-04T16:34:44.946Z,101684.23
2018-12-04T16:39:48.414Z,101700.60
2018-12-04T16:44:51.681Z,101710.10
2018-12-04T16:49:54.882Z,101728.36
2018-12-04T16:54:58.141Z,101735.69
2018-12-04T17:00:01.368Z,101738.00
2018-12-04T17:05:04.753Z,101746.30
2018-12-04T17:10:08.201Z,101753.83
2018-12-04T17:15:11.585Z,101752.77
2018-12-04T17:20:14.788Z,101757.20
2018-12-04T17:25:17.897Z,101771.45
2018-12-04T17:30:21.122Z,101776.98
2018-12-04T17:35:24.387Z,101788.79
2018-12-04T17:40:27.742Z,101794.19
2018-12-04T17:45:30.916Z,101789.66
2018-12-04T17:50:34.156Z,101797.22
2018-12-04T17:55:37.455Z,101799.76
2018-12-04T18:00:41.668Z,101796.34
2018-12-04T18:05:45.603Z,101808.84
2018-12-04T18:10:48.786Z,101814.69
2018-12-04T18:15:51.990Z,101817.98
2018-12-04T18:20:55.256Z,101827.34
2018-12-04T18:25:58.527Z,101837.55
2018-12-04T18:31:02.168Z,101846.63
2018-12-04T18:36:05.368Z,101858.33
2018-12-04T18:41:08.678Z,101854.66
2018-12-04T18:46:12.037Z,101852.36
2018-12-04T18:51:15.383Z,101853.70
2018-12-04T18:56:18.850Z,101856.25
2018-12-04T19:01:22.086Z,101868.63
2018-12-04T19:06:25.317Z,101858.61
2018-12-04T19:11:28.626Z,101872.04
2018-12-04T19:16:34.096Z,101876.75
2018-12-04T19:21:40.762Z,101890.08
2018-12-04T19:26:50.743Z,101906.72
2018-12-04T19:31:54.821Z,101910.55
2018-12-04T19:36:59.159Z,101908.69
2018-12-04T19:42:03.020Z,101924.55
2018-12-04T19:47:07.555Z,101937.97
2018-12-04T19:52:11.900Z,101945.81
2018-12-04T19:57:16.001Z,101950.53
2018-12-04T20:02:19.260Z,101950.34
2018-12-04T20:07:23.356Z,101972.73
2018-12-04T20:12:27.164Z,101964.41
2018-12-04T20:17:31.225Z,101978.77
2018-12-04T20:22:34.402Z,101983.40
2018-12-04T20:27:37.806Z,101993.39
2018-12-04T20:32:44.171Z,101999.30
2018-12-04T20:37:47.472Z,102004.04
2018-12-04T20:42:50.947Z,102011.33
2018-12-04T20:47:54.259Z,102016.99
2018-12-04T20:52:57.977Z,102024.34
2018-12-04T20:58:01.269Z,102037.58
2018-12-04T21:03:06.353Z,102026.92
2018-12-04T21:08:11.698Z,102034.45
2018-12-04T21:13:17.670Z,102041.91
2018-12-04T21:18:23.476Z,102047.80
2018-12-04T21:23:29.476Z,102064.13
2018-12-04T21:28:35.627Z,102076.77
2018-12-04T21:33:42.124Z,102084.32
2018-12-04T21:38:49.105Z,102098.37
2018-12-04T21:43:53.777Z,102092.91
2018-12-04T21:48:57.035Z,102093.28
2018-12-04T21:54:00.506Z,102110.17
2018-12-04T21:59:04.084Z,102119.28
2018-12-04T22:04:07.346Z,102125.31
2018-12-04T22:09:11.001Z,102122.13
2018-12-04T22:14:14.998Z,102127.20
2018-12-04T22:19:18.615Z,102140.81
2018-12-04T22:24:22.437Z,102150.32
2018-12-04T22:29:25.784Z,102155.17
2018-12-04T22:34:29.061Z,102163.80
2018-12-04T22:39:32.571Z,102160.19
2018-12-04T22:44:35.741Z,102161.96
2018-12-04T22:49:39.104Z,102159.39
2018-12-04T22:54:42.323Z,102154.94
2018-12-04T22:59:45.567Z,102159.97
2018-12-04T23:04:48.808Z,102163.32
2018-12-04T23:09:52.259Z,102170.11
2018-12-04T23:14:55.573Z,102171.84
2018-12-04T23:19:58.737Z,102175.09
2018-12-04T23:25:02.162Z,102166.18
2018-12-04T23:30:06.286Z,102171.69
2018-12-04T23:35:09.634Z,102172.77
2018-12-04T23:40:12.890Z,102179.91
2018-12-04T23:45:16.298Z,102188.05
2018-12-04T23:50:19.551Z,102188.91
2018-12-04T23:55:23.284Z,102190.53
